Welcome to Northern Hawkes Bay. New Zealand.
PWS Header
      nz Flag



Hit Counter


W3C Valid W3C Valid logo


    Wairoa

Select any of the Stations below to visit their websites.










Historic Data from Weather Underground
Select the location of interest below. Wairoa is the default. Please have patience, this Data is slow to load in.
Northern Hawkes Bay Historical Data
Daily Summary for April 9, 2017 Units:  English    Metric   Both
« Previous Day
Next Day »
Daily Weekly Monthly Yearly Custom
  High: Low: Average:
Temperature: 68.4 °F 49.3 °F 57 °F
Dew Point: 56.5 °F 48.9 °F 52.5 °F
Humidity: 99% 55% 86%
Wind Speed: 6.9mph 0mph 1.2mph
Wind Gust: 9.8mph - -
Wind- - WSW
Pressure: 30.4 in 30.3 in -
Precipitation: 0 in    
Historical Graphs
 
 
Tabular Data for April 9, 2017
Time Temperature Dew Point Pressure Wind Wind Speed Wind Gust Humidity Rainfall Rate (Hourly) solar
00:04 55.2 °F 52.9 °F 30.4 in Calm     92% 0 in 0 W/m2
00:10 55.2 °F 52.9 °F 30.4 in Calm     92% 0 in 0 W/m2
00:16 55.2 °F 52.9 °F 30.4 in Calm     92% 0 in 0 W/m2
00:22 55.2 °F 52.9 °F 30.4 in Calm     92% 0 in 0 W/m2
00:28 55.2 °F 52.9 °F 30.4 in Calm   3.8 mph 92% 0 in 0 W/m2
00:34 55 °F 52.9 °F 30.4 in Calm   3.1 mph 92% 0 in 0 W/m2
00:40 55 °F 52.9 °F 30.4 in Calm     92% 0 in 0 W/m2
00:46 55 °F 52.9 °F 30.4 in Calm     92% 0 in 0 W/m2
00:52 55 °F 52.9 °F 30.4 in Calm     92% 0 in 0 W/m2
00:58 55 °F 52.9 °F 30.4 in Calm     92% 0 in 0 W/m2
01:04 55 °F 52.9 °F 30.4 in Calm     92% 0 in 0 W/m2
01:10 54.9 °F 52.5 °F 30.4 in Calm     92% 0 in 0 W/m2
01:16 54.5 °F 52.2 °F 30.4 in Calm     92% 0 in 0 W/m2
01:22 54.3 °F 52.2 °F 30.4 in North 2.2 mph 3.1 mph 92% 0 in 0 W/m2
01:28 54.1 °F 52 °F 30.4 in North 0.7 mph 3.1 mph 92% 0 in 0 W/m2
01:34 54.1 °F 52.2 °F 30.4 in Calm   3.1 mph 93% 0 in 0 W/m2
01:40 54 °F 52 °F 30.4 in Calm   3.1 mph 93% 0 in 0 W/m2
01:58 53.6 °F 51.6 °F 30.4 in Calm   3.1 mph 93% 0 in 0 W/m2
02:04 53.2 °F 51.6 °F 30.4 in Calm   1.6 mph 94% 0 in 0 W/m2
02:10 53.2 °F 51.6 °F 30.4 in Calm     94% 0 in 0 W/m2
02:16 53.1 °F 51.6 °F 30.4 in Calm     95% 0 in 0 W/m2
02:22 53.1 °F 51.6 °F 30.4 in Calm     95% 0 in 0 W/m2
02:27 53.2 °F 52 °F 30.4 in Calm     95% 0 in 0 W/m2
02:34 53.2 °F 52.2 °F 30.4 in Calm     96% 0 in 0 W/m2
02:40 53.1 °F 52 °F 30.4 in Calm     96% 0 in 0 W/m2
02:46 52.9 °F 51.8 °F 30.4 in Calm     96% 0 in 0 W/m2
02:52 52.7 °F 51.6 °F 30.4 in Calm     96% 0 in 0 W/m2
02:58 52.3 °F 51.3 °F 30.4 in Calm     96% 0 in 0 W/m2
03:04 52.2 °F 51.1 °F 30.4 in Calm     96% 0 in 0 W/m2
03:10 52 °F 50.9 °F 30.4 in Calm     96% 0 in 0 W/m2
03:16 51.6 °F 50.7 °F 30.4 in Calm     97% 0 in 0 W/m2
03:22 51.4 °F 50.5 °F 30.4 in Calm     97% 0 in 0 W/m2
03:28 51.3 °F 50.7 °F 30.4 in Calm     98% 0 in 0 W/m2
03:34 51.3 °F 50.7 °F 30.4 in Calm     98% 0 in 0 W/m2
03:40 51.1 °F 50.5 °F 30.4 in Calm     98% 0 in 0 W/m2
03:45 50.9 °F 50.4 °F 30.4 in Calm   1.6 mph 98% 0 in 0 W/m2
03:52 50.7 °F 50.2 °F 30.4 in Calm   1.6 mph 98% 0 in 0 W/m2
03:58 50.7 °F 50.2 °F 30.4 in Calm     98% 0 in 0 W/m2
04:04 50.5 °F 50 °F 30.4 in NW 1.6 mph 3.1 mph 98% 0 in 0 W/m2
04:10 50.5 °F 50.4 °F 30.4 in NW 2.2 mph 5.4 mph 99% 0 in 0 W/m2
04:16 50.7 °F 50.5 °F 30.4 in NW 0.7 mph 5.4 mph 99% 0 in 0 W/m2
04:22 50.7 °F 50.5 °F 30.4 in NW 2.2 mph 3.8 mph 99% 0 in 0 W/m2
04:28 50.7 °F 50.5 °F 30.4 in Calm   3.8 mph 99% 0 in 0 W/m2
04:34 50.7 °F 50.5 °F 30.4 in NW 1.6 mph 3.8 mph 99% 0 in 0 W/m2
04:40 50.7 °F 50.5 °F 30.4 in NNW 1.6 mph 4.5 mph 99% 0 in 0 W/m2
04:46 50.5 °F 50.4 °F 30.4 in NNW 0.7 mph 4.5 mph 99% 0 in 0 W/m2
04:52 50.4 °F 50.2 °F 30.4 in NNW 0.7 mph 4.5 mph 99% 0 in 0 W/m2
04:58 50.2 °F 49.8 °F 30.4 in Calm   3.8 mph 99% 0 in 0 W/m2
05:04 50.4 °F 50.2 °F 30.4 in Calm   3.1 mph 99% 0 in 0 W/m2
05:10 50.2 °F 49.8 °F 30.4 in North 1.6 mph 2.2 mph 99% 0 in 0 W/m2
05:12 50.2 °F 49.8 °F 30.4 in North 1.6 mph 3.1 mph 99% 0 in 0 W/m2
05:18 50 °F 49.6 °F 30.4 in North 2.2 mph 4.5 mph 99% 0 in 0 W/m2
05:23 49.8 °F 49.6 °F 30.4 in NNW 2.2 mph 4.5 mph 99% 0 in 0 W/m2
05:30 49.8 °F 49.6 °F 30.4 in NNW 1.6 mph 4.5 mph 99% 0 in 0 W/m2
05:42 49.6 °F 49.5 °F 30.4 in NW 1.6 mph 3.1 mph 99% 0 in 0 W/m2
05:48 49.5 °F 49.3 °F 30.4 in NNW 3.1 mph 4.5 mph 99% 0 in 0 W/m2
05:53 49.5 °F 49.3 °F 30.4 in North 3.1 mph 5.4 mph 99% 0 in 0 W/m2
06:00 49.5 °F 49.3 °F 30.4 in NNW 1.6 mph 5.4 mph 99% 0 in 0 W/m2
06:06 49.5 °F 49.3 °F 30.4 in NNW 2.2 mph 4.5 mph 99% 0 in 0 W/m2
06:12 49.6 °F 49.5 °F 30.4 in NNW 2.2 mph 6 mph 99% 0 in 0 W/m2
06:17 49.6 °F 49.5 °F 30.4 in NNW 3.1 mph 5.4 mph 99% 0 in 0 W/m2
06:24 49.5 °F 49.3 °F 30.4 in NNW 2.2 mph 5.4 mph 99% 0 in 0 W/m2
06:30 49.3 °F 48.9 °F 30.4 in NNW 3.1 mph 4.5 mph 99% 0 in 1 W/m2
06:36 49.3 °F 48.9 °F 30.4 in NNW 2.2 mph 4.5 mph 99% 0 in 3 W/m2
06:41 49.5 °F 49.3 °F 30.4 in NNW 3.1 mph 6 mph 99% 0 in 5 W/m2
06:47 49.5 °F 49.3 °F 30.4 in North 1.6 mph 6 mph 99% 0 in 7 W/m2
07:00 50 °F 49.6 °F 30.4 in NNW 3.1 mph 7.6 mph 99% 0 in 16 W/m2
07:06 50.2 °F 49.8 °F 30.4 in NNW 3.1 mph 7.6 mph 99% 0 in 14 W/m2
07:11 50.4 °F 50.2 °F 30.4 in NNW 1.6 mph 6 mph 99% 0 in 20 W/m2
07:17 50.5 °F 50.4 °F 30.4 in North 1.6 mph 5.4 mph 99% 0 in 35 W/m2
07:23 50.9 °F 50.5 °F 30.4 in NNW 3.1 mph 6.9 mph 99% 0 in 48 W/m2
07:30 51.3 °F 51.1 °F 30.4 in North 3.1 mph 7.6 mph 99% 0 in 64 W/m2
07:36 51.4 °F 51.3 °F 30.4 in NNW 3.8 mph 6.9 mph 99% 0 in 69 W/m2
07:42 51.8 °F 51.3 °F 30.4 in NNW 3.8 mph 6.9 mph 98% 0 in 91 W/m2
07:47 52.5 °F 52 °F 30.4 in North 4.5 mph 6.9 mph 98% 0 in 133 W/m2
07:54 53.2 °F 52 °F 30.4 in North 6 mph 7.6 mph 95% 0 in 157 W/m2
08:00 53.2 °F 50.7 °F 30.4 in NNW 3.8 mph 9.2 mph 91% 0 in 131 W/m2
08:05 53.2 °F 50.2 °F 30.4 in North 3.1 mph 9.2 mph 89% 0 in 165 W/m2
08:11 53.8 °F 50.4 °F 30.4 in NNW 4.5 mph 8.3 mph 88% 0 in 284 W/m2
08:17 54.5 °F 50.7 °F 30.4 in NNW 5.4 mph 9.2 mph 87% 0 in 303 W/m2
08:23 54.9 °F 50.4 °F 30.4 in NNW 6.9 mph 9.8 mph 85% 0 in 257 W/m2
08:30 55.4 °F 51.3 °F 30.4 in NNW 6 mph 9.2 mph 86% 0 in 324 W/m2
08:35 56.3 °F 52 °F 30.4 in North 3.8 mph 8.3 mph 85% 0 in 268 W/m2
08:42 56.3 °F 50.9 °F 30.4 in NNW 1.6 mph 8.3 mph 82% 0 in 187 W/m2
08:48 56.1 °F 50.7 °F 30.4 in NNW 2.2 mph 8.3 mph 82% 0 in 179 W/m2
08:51 55.6 °F 49.8 °F 30.4 in NNW 5.4 mph 9.2 mph 81% 0 in 200 W/m2
08:58 55.6 °F 50.5 °F 30.4 in NNW 3.1 mph 9.2 mph 83% 0 in 263 W/m2
09:03 56.8 °F 51.4 °F 30.4 in NNW 3.1 mph 6.9 mph 82% 0 in 236 W/m2
09:10 57.6 °F 51.8 °F 30.4 in NW 5.4 mph 9.2 mph 81% 0 in 277 W/m2
09:16 59.4 °F 52.2 °F 30.4 in NNW 6 mph 9.2 mph 77% 0 in 411 W/m2
09:21 59.4 °F 51.4 °F 30.4 in NNW 4.5 mph 7.6 mph 75% 0 in 189 W/m2
09:27 58.6 °F 51.1 °F 30.4 in NNW 3.1 mph 6.9 mph 76% 0 in 331 W/m2
09:33 59.4 °F 51.1 °F 30.4 in NW 3.8 mph 7.6 mph 74% 0 in 229 W/m2
09:40 59.2 °F 50.5 °F 30.4 in NW 3.1 mph 7.6 mph 73% 0 in 280 W/m2
09:45 59.7 °F 51.1 °F 30.4 in NW 3.1 mph 7.6 mph 73% 0 in 206 W/m2
09:51 59.9 °F 50.5 °F 30.4 in NNW 3.1 mph 6.9 mph 71% 0 in 222 W/m2
09:57 60.1 °F 50.7 °F 30.4 in NNE 2.2 mph 8.3 mph 71% 0 in 189 W/m2
10:03 61.2 °F 51.6 °F 30.4 in North 2.2 mph 7.6 mph 71% 0 in 135 W/m2
10:10 62.6 °F 52 °F 30.4 in NW 2.2 mph 6.9 mph 68% 0 in 114 W/m2
10:15 63.1 °F 51.6 °F 30.4 in NNW 4.5 mph 6 mph 66% 0 in 101 W/m2
10:21 64.6 °F 53.1 °F 30.4 in North 0.7 mph 6 mph 66% 0 in 85 W/m2
10:27 65.8 °F 52.9 °F 30.4 in NNW 2.2 mph 5.4 mph 63% 0 in 130 W/m2
10:33 64.9 °F 51.6 °F 30.4 in NW 1.6 mph 5.4 mph 62% 0 in 212 W/m2
10:40 65.7 °F 52.3 °F 30.4 in Calm   5.4 mph 62% 0 in 235 W/m2
10:45 67.3 °F 52.5 °F 30.4 in WNW 0.7 mph 3.8 mph 59% 0 in 471 W/m2
10:51 68.4 °F 52.2 °F 30.4 in WNW 2.2 mph 4.5 mph 56% 0 in 494 W/m2
10:57 68.2 °F 51.4 °F 30.4 in WSW 3.1 mph 5.4 mph 55% 0 in 368 W/m2
11:04 65.8 °F 50.7 °F 30.4 in SSW 2.2 mph 5.4 mph 58% 0 in 251 W/m2
11:10 65.7 °F 51.1 °F 30.4 in Calm   4.5 mph 59% 0 in 315 W/m2
11:15 65.7 °F 51.4 °F 30.4 in SSW 4.5 mph 7.6 mph 60% 0 in 622 W/m2
11:22 64.4 °F 51.1 °F 30.4 in SSW 4.5 mph 9.2 mph 62% 0 in 308 W/m2
11:28 63 °F 50.5 °F 30.4 in SW 3.1 mph 9.2 mph 64% 0 in 232 W/m2
11:31 63 °F 51.4 °F 30.4 in SW 4.5 mph 7.6 mph 66% 0 in 237 W/m2
11:37 63.1 °F 50.7 °F 30.4 in South 5.4 mph 8.3 mph 64% 0 in 598 W/m2
11:43 63.5 °F 51.4 °F 30.4 in South 6 mph 8.3 mph 65% 0 in 238 W/m2
11:50 62.8 °F 51.3 °F 30.4 in South 3.1 mph 7.6 mph 66% 0 in 233 W/m2
11:55 63.1 °F 51.6 °F 30.4 in South 3.8 mph 6 mph 66% 0 in 266 W/m2
12:01 63.1 °F 51.6 °F 30.4 in South 3.8 mph 6.9 mph 66% 0 in 311 W/m2
12:07 63.9 °F 51.4 °F 30.4 in Calm   6.9 mph 64% 0 in 309 W/m2
12:33 63.5 °F 51.1 °F 30.4 in SSE 3.8 mph 6 mph 64% 0 in 192 W/m2
12:40 63.7 °F 51.3 °F 30.4 in SE 3.8 mph 6 mph 64% 0 in 248 W/m2
12:45 63.1 °F 50.7 °F 30.4 in SE 0.7 mph 8.3 mph 64% 0 in 288 W/m2
12:51 63.3 °F 51.1 °F 30.4 in SSE 3.1 mph 8.3 mph 64% 0 in 267 W/m2
12:57 63.9 °F 52 °F 30.4 in SSE 5.4 mph 7.6 mph 65% 0 in 226 W/m2
13:03 63.5 °F 51.1 °F 30.4 in SE 0.7 mph 6.9 mph 64% 0 in 206 W/m2
13:10 63.1 °F 51.3 °F 30.4 in Calm   7.6 mph 65% 0 in 201 W/m2
13:15 63 °F 51.1 °F 30.4 in South 3.1 mph 7.6 mph 65% 0 in 264 W/m2
13:21 63.5 °F 52 °F 30.4 in Calm   7.6 mph 66% 0 in 258 W/m2
13:33 63.3 °F 51.1 °F 30.4 in SE 3.8 mph 7.6 mph 64% 0 in 232 W/m2
13:40 63.3 °F 51.8 °F 30.4 in SSE 1.6 mph 6.9 mph 66% 0 in 225 W/m2
13:45 63.5 °F 51.1 °F 30.4 in Calm   6 mph 64% 0 in 237 W/m2
13:51 63.3 °F 51.4 °F 30.4 in ESE 4.5 mph 6 mph 65% 0 in 221 W/m2
13:57 63.1 °F 52 °F 30.4 in SE 3.1 mph 6 mph 67% 0 in 213 W/m2
14:03 62.8 °F 52.5 °F 30.4 in Calm   6 mph 69% 0 in 211 W/m2
14:10 63 °F 52.5 °F 30.4 in ESE 2.2 mph 5.4 mph 69% 0 in 178 W/m2
14:15 62.8 °F 52.9 °F 30.4 in SE 2.2 mph 5.4 mph 70% 0 in 177 W/m2
14:21 62.6 °F 52.7 °F 30.4 in SE 0.7 mph 5.4 mph 70% 0 in 159 W/m2
14:27 62.8 °F 53.2 °F 30.4 in Calm   4.5 mph 71% 0 in 162 W/m2
14:33 63 °F 53.8 °F 30.4 in Calm   5.4 mph 72% 0 in 193 W/m2
14:40 63.1 °F 54.7 °F 30.4 in SE 1.6 mph 5.4 mph 74% 0 in 171 W/m2
14:45 63.1 °F 54.7 °F 30.4 in SE 0.7 mph 4.5 mph 74% 0 in 141 W/m2
14:51 62.4 °F 54.3 °F 30.4 in Calm   5.4 mph 75% 0 in 125 W/m2
14:57 62.2 °F 54.1 °F 30.4 in SSE 0.7 mph 5.4 mph 75% 0 in 107 W/m2
15:03 62.1 °F 54.1 °F 30.4 in Calm   3.8 mph 75% 0 in 98 W/m2
15:10 62.1 °F 54.1 °F 30.4 in Calm   2.2 mph 75% 0 in 95 W/m2
15:15 61.9 °F 54.1 °F 30.4 in Calm   3.1 mph 76% 0 in 91 W/m2
15:21 61.9 °F 54.7 °F 30.4 in Calm   0.7 mph 77% 0 in 90 W/m2
15:27 62.1 °F 54.9 °F 30.4 in Calm   0.7 mph 77% 0 in 85 W/m2
15:33 61.9 °F 54.7 °F 30.4 in Calm   2.2 mph 77% 0 in 76 W/m2
15:40 61.9 °F 54.7 °F 30.4 in Calm   2.2 mph 77% 0 in 82 W/m2
15:45 62.1 °F 54.9 °F 30.4 in Calm   2.2 mph 77% 0 in 110 W/m2
15:51 62.4 °F 55.6 °F 30.4 in Calm   0.7 mph 78% 0 in 115 W/m2
15:57 63 °F 55.8 °F 30.4 in Calm   0.7 mph 77% 0 in 111 W/m2
16:03 63.3 °F 55.6 °F 30.4 in Calm   1.6 mph 76% 0 in 105 W/m2
16:10 63.1 °F 55 °F 30.4 in Calm   1.6 mph 75% 0 in 87 W/m2
16:15 62.6 °F 54.9 °F 30.4 in Calm   0.7 mph 76% 0 in 60 W/m2
16:21 62.4 °F 55.6 °F 30.3 in Calm   0.7 mph 78% 0 in 52 W/m2
16:27 62.1 °F 55 °F 30.3 in Calm     78% 0 in 55 W/m2
16:33 62.1 °F 55.6 °F 30.3 in Calm     79% 0 in 54 W/m2
16:40 62.1 °F 55.6 °F 30.3 in Calm     79% 0 in 55 W/m2
16:45 62.1 °F 55.6 °F 30.3 in Calm     79% 0 in 53 W/m2
16:51 61.7 °F 55.6 °F 30.3 in Calm     80% 0 in 47 W/m2
16:57 61.5 °F 55.2 °F 30.3 in Calm     80% 0 in 38 W/m2
17:03 61.2 °F 55 °F 30.3 in Calm   1.6 mph 80% 0 in 30 W/m2
17:10 61 °F 55 °F 30.3 in Calm     81% 0 in 24 W/m2
17:15 60.8 °F 55.2 °F 30.4 in Calm     82% 0 in 18 W/m2
17:21 60.8 °F 55.2 °F 30.4 in Calm     82% 0 in 14 W/m2
17:27 60.6 °F 55.8 °F 30.3 in Calm     84% 0 in 8 W/m2
17:33 60.4 °F 55.6 °F 30.3 in Calm     84% 0 in 5 W/m2
17:40 60.3 °F 55.8 °F 30.3 in Calm     85% 0 in 3 W/m2
17:45 60.3 °F 55.8 °F 30.3 in Calm     85% 0 in 1 W/m2
17:51 60.1 °F 55.6 °F 30.3 in Calm     85% 0 in 0 W/m2
17:57 59.9 °F 55.8 °F 30.3 in Calm     86% 0 in 0 W/m2
18:03 59.9 °F 55.8 °F 30.3 in Calm     86% 0 in 0 W/m2
18:10 59.9 °F 55.8 °F 30.3 in Calm     86% 0 in 0 W/m2
18:15 59.7 °F 55.6 °F 30.3 in Calm     86% 0 in 0 W/m2
18:21 59.5 °F 55.8 °F 30.3 in Calm     87% 0 in 0 W/m2
18:27 59.5 °F 55.8 °F 30.3 in Calm     87% 0 in 0 W/m2
18:33 59.4 °F 55.8 °F 30.4 in Calm     88% 0 in 0 W/m2
18:40 59.4 °F 55.8 °F 30.4 in Calm     88% 0 in 0 W/m2
18:45 59.2 °F 55.6 °F 30.4 in Calm     88% 0 in 0 W/m2
18:51 59.2 °F 55.9 °F 30.4 in Calm     89% 0 in 0 W/m2
18:57 59.2 °F 55.9 °F 30.4 in Calm   0.7 mph 89% 0 in 0 W/m2
19:03 59.4 °F 56.5 °F 30.4 in Calm     90% 0 in 0 W/m2
19:10 59.2 °F 56.3 °F 30.4 in Calm     90% 0 in 0 W/m2
19:15 59.2 °F 56.3 °F 30.4 in Calm     90% 0 in 0 W/m2
19:21 59.2 °F 56.3 °F 30.4 in Calm   0.7 mph 90% 0 in 0 W/m2
19:27 59 °F 56.1 °F 30.4 in Calm   0.7 mph 90% 0 in 0 W/m2
19:33 58.8 °F 56.1 °F 30.4 in Calm     91% 0 in 0 W/m2
19:40 58.6 °F 55.9 °F 30.4 in Calm     91% 0 in 0 W/m2
19:45 58.5 °F 55.9 °F 30.4 in Calm     91% 0 in 0 W/m2
19:51 58.3 °F 55.8 °F 30.4 in Calm     91% 0 in 0 W/m2
19:57 57.9 °F 55.2 °F 30.4 in Calm     91% 0 in 0 W/m2
20:03 57.6 °F 55 °F 30.4 in Calm     91% 0 in 0 W/m2
20:10 57.4 °F 54.9 °F 30.4 in Calm     91% 0 in 0 W/m2
20:15 57 °F 54.7 °F 30.4 in Calm     92% 0 in 0 W/m2
20:27 56.8 °F 54.7 °F 30.4 in Calm     92% 0 in 0 W/m2
20:33 56.5 °F 54.1 °F 30.4 in Calm     92% 0 in 0 W/m2
20:40 56.1 °F 53.8 °F 30.4 in Calm     92% 0 in 0 W/m2
20:45 55.9 °F 53.8 °F 30.4 in Calm     92% 0 in 0 W/m2
20:57 55.6 °F 53.6 °F 30.4 in Calm     93% 0 in 0 W/m2
21:03 55.4 °F 53.4 °F 30.4 in Calm     93% 0 in 0 W/m2
21:10 55.4 °F 53.8 °F 30.4 in Calm     94% 0 in 0 W/m2
21:15 55.4 °F 54 °F 30.4 in Calm     95% 0 in 0 W/m2
21:21 55.2 °F 53.4 °F 30.4 in Calm     94% 0 in 0 W/m2
21:27 54.7 °F 53.1 °F 30.4 in Calm     94% 0 in 0 W/m2
21:33 54.7 °F 53.1 °F 30.4 in Calm     94% 0 in 0 W/m2
21:40 54.5 °F 53.1 °F 30.4 in Calm     95% 0 in 0 W/m2
21:51 54.5 °F 53.1 °F 30.4 in Calm     95% 0 in 0 W/m2
21:57 54.1 °F 52.7 °F 30.4 in Calm     95% 0 in 0 W/m2
22:03 54.3 °F 52.9 °F 30.4 in NW 0.7 mph 1.6 mph 95% 0 in 0 W/m2
22:10 54.1 °F 52.7 °F 30.4 in Calm   1.6 mph 95% 0 in 0 W/m2
22:15 54 °F 52.5 °F 30.4 in Calm   0.7 mph 95% 0 in 0 W/m2
22:21 53.8 °F 52.7 °F 30.4 in Calm     96% 0 in 0 W/m2
22:27 53.8 °F 52.7 °F 30.4 in Calm     96% 0 in 0 W/m2
22:33 53.6 °F 52.5 °F 30.4 in Calm     96% 0 in 0 W/m2
22:39 53.4 °F 52.9 °F 30.4 in Calm     98% 0 in 0 W/m2
22:45 53.4 °F 52.9 °F 30.4 in Calm     98% 0 in 0 W/m2
22:51 53.4 °F 52.9 °F 30.4 in Calm   1.6 mph 98% 0 in 0 W/m2
22:57 53.4 °F 52.9 °F 30.4 in Calm   1.6 mph 98% 0 in 0 W/m2
23:03 53.4 °F 52.9 °F 30.4 in Calm     98% 0 in 0 W/m2
23:10 53.4 °F 52.9 °F 30.4 in Calm     98% 0 in 0 W/m2
23:15 53.6 °F 52.9 °F 30.3 in Calm   3.1 mph 97% 0 in 0 W/m2
23:21 53.6 °F 52.9 °F 30.4 in Calm     97% 0 in 0 W/m2
23:27 53.6 °F 52.9 °F 30.4 in Calm   0.7 mph 97% 0 in 0 W/m2
23:33 53.6 °F 52.9 °F 30.4 in Calm     97% 0 in 0 W/m2
23:45 53.8 °F 53.1 °F 30.4 in Calm   3.1 mph 97% 0 in 0 W/m2
23:51 53.8 °F 53.1 °F 30.4 in Calm     97% 0 in 0 W/m2
23:57 53.8 °F 53.1 °F 30.4 in Calm     97% 0 in 0 W/m2
Northern Hawkes Bay. New Zealand Historic Data
Compliments of Weather Underground - 2 mb